Time;durP1;ratioP1;P1;durP2;ratioP2;P2;SDS_P1;SDS_P2;PMS_P1;PMS_P2;Temp;Humidity;BMP_temperature;BMP_pressure;BME280_temperature;BME280_humidity;BME280_pressure;Samples;Min_cycle;Max_cycle;Signal;HPM_P1;HPM_P2
2022/06/05 05:00:04;;;;;;;53.17;26.42;;;;;;;;;;5219358;23;20063;-63
2022/06/05 05:02:30;;;;;;;55.65;28.75;;;;;;;;;;4908880;29;20403;-63
2022/06/05 05:04:57;;;;;;;53.47;26.52;;;;;;;;;;4914082;29;20025;-63
2022/06/05 05:07:23;;;;;;;44.75;23.65;;;;;;;;;;4915639;29;21927;-64
2022/06/05 05:09:49;;;;;;;48.03;25.42;;;;;;;;;;4916049;29;20033;-64
2022/06/05 05:12:16;;;;;;;47.65;24.15;;;;;;;;;;4918510;29;20031;-64
2022/06/05 05:14:42;;;;;;;41.85;22.67;;;;;;;;;;4916189;29;20547;-64
2022/06/05 05:17:08;;;;;;;42.00;22.05;;;;;;;;;;4913309;29;20084;-64
2022/06/05 05:19:34;;;;;;;51.03;22.17;;;;;;;;;;4919935;29;20456;-63
2022/06/05 05:22:00;;;;;;;36.67;20.63;;;;;;;;;;4914748;29;20041;-63
2022/06/05 05:24:26;;;;;;;39.35;21.15;;;;;;;;;;4914355;29;20060;-63
2022/06/05 05:26:53;;;;;;;34.40;18.35;;;;;;;;;;4915172;29;20036;-63
2022/06/05 05:29:19;;;;;;;28.63;16.88;;;;;;;;;;4910312;29;20058;-63
2022/06/05 05:31:45;;;;;;;31.50;16.77;;;;;;;;;;4914266;29;20060;-63
2022/06/05 05:34:13;;;;;;;29.73;15.02;;;;;;;;;;4911427;29;20040;-63
2022/06/05 05:36:39;;;;;;;25.13;13.65;;;;;;;;;;4913941;29;20032;-64
2022/06/05 05:42:05;;;;;;;20.27;11.88;;;;;;;;;;4912641;29;20034;-64
2022/06/05 05:44:52;;;;;;;24.20;12.40;;;;;;;;;;4916439;29;20031;-64
2022/06/05 05:47:18;;;;;;;18.42;11.60;;;;;;;;;;4915154;29;20035;-64
2022/06/05 05:49:44;;;;;;;19.55;9.95;;;;;;;;;;4914444;29;20036;-64
2022/06/05 05:52:11;;;;;;;17.85;10.95;;;;;;;;;;4918076;29;20495;-64
2022/06/05 05:54:37;;;;;;;22.50;10.75;;;;;;;;;;4916765;29;20551;-64
2022/06/05 05:57:04;;;;;;;14.48;9.38;;;;;;;;;;4914230;29;20142;-64
2022/06/05 05:59:31;;;;;;;17.35;8.70;;;;;;;;;;4914400;29;20448;-64
2022/06/05 06:01:57;;;;;;;11.48;7.05;;;;;;;;;;4911815;29;20040;-64
2022/06/05 06:04:23;;;;;;;13.60;7.07;;;;;;;;;;4913480;29;20047;-63
2022/06/05 06:06:49;;;;;;;14.75;7.72;;;;;;;;;;4913909;29;20032;-63
2022/06/05 06:09:16;;;;;;;13.80;6.15;;;;;;;;;;4920342;29;20042;-64
2022/06/05 06:11:43;;;;;;;10.55;5.25;;;;;;;;;;4914305;29;20458;-64
2022/06/05 06:14:09;;;;;;;9.27;5.07;;;;;;;;;;4913137;29;20070;-64
2022/06/05 06:16:35;;;;;;;15.63;5.10;;;;;;;;;;4912225;29;20044;-63
2022/06/05 06:19:01;;;;;;;6.38;4.47;;;;;;;;;;4914041;29;20024;-63
2022/06/05 06:21:27;;;;;;;10.93;5.13;;;;;;;;;;4928704;29;20036;-63
2022/06/05 06:23:54;;;;;;;7.97;3.60;;;;;;;;;;4916258;29;20020;-64
2022/06/05 06:26:20;;;;;;;8.32;3.90;;;;;;;;;;4914270;29;20063;-64
2022/06/05 06:28:46;;;;;;;9.43;4.07;;;;;;;;;;4912131;29;20028;-64
2022/06/05 06:31:14;;;;;;;10.02;3.83;;;;;;;;;;4911032;29;20055;-64
2022/06/05 06:33:40;;;;;;;7.50;3.95;;;;;;;;;;4915344;29;20028;-63
2022/06/05 06:36:08;;;;;;;8.45;4.13;;;;;;;;;;4913425;29;20480;-63
2022/06/05 06:38:34;;;;;;;10.10;4.00;;;;;;;;;;4916642;29;20079;-63
2022/06/05 06:41:05;;;;;;;11.13;4.20;;;;;;;;;;4910335;29;20039;-64
2022/06/05 06:43:32;;;;;;;8.15;4.22;;;;;;;;;;4913871;29;20066;-63
2022/06/05 06:45:58;;;;;;;10.60;4.60;;;;;;;;;;4914933;29;20038;-63
2022/06/05 06:48:25;;;;;;;14.18;4.97;;;;;;;;;;4911404;29;20032;-63
2022/06/05 06:50:53;;;;;;;8.13;4.35;;;;;;;;;;4912514;29;20035;-64
2022/06/05 06:53:19;;;;;;;8.38;4.55;;;;;;;;;;4920026;29;20035;-63
2022/06/05 06:55:45;;;;;;;8.05;4.40;;;;;;;;;;4916521;29;20499;-63
2022/06/05 06:58:12;;;;;;;11.82;4.30;;;;;;;;;;4912868;29;20070;-63
2022/06/05 07:00:38;;;;;;;10.73;5.35;;;;;;;;;;4903579;29;20032;-64
2022/06/05 07:03:04;;;;;;;6.03;3.00;;;;;;;;;;4915315;29;20028;-63
2022/06/05 07:05:30;;;;;;;7.50;3.97;;;;;;;;;;4907687;29;20043;-63
2022/06/05 07:07:57;;;;;;;6.22;3.55;;;;;;;;;;4914245;29;20031;-62
2022/06/05 07:10:23;;;;;;;12.00;3.30;;;;;;;;;;4912082;29;20585;-62
2022/06/05 07:12:49;;;;;;;5.68;3.03;;;;;;;;;;4909658;29;20107;-62
2022/06/05 07:15:15;;;;;;;4.60;2.33;;;;;;;;;;4910751;29;20052;-63
2022/06/05 07:17:41;;;;;;;9.00;2.80;;;;;;;;;;4913354;29;20502;-65
2022/06/05 07:20:07;;;;;;;5.63;2.45;;;;;;;;;;4909253;29;20094;-62
2022/06/05 07:22:33;;;;;;;6.60;2.80;;;;;;;;;;4911454;29;20166;-62
2022/06/05 07:25:00;;;;;;;7.05;2.50;;;;;;;;;;4912201;29;20527;-62
2022/06/05 07:27:27;;;;;;;6.72;3.00;;;;;;;;;;4910257;29;20412;-62
2022/06/05 07:29:53;;;;;;;6.50;2.92;;;;;;;;;;4911987;29;20068;-62
2022/06/05 07:32:20;;;;;;;3.45;1.90;;;;;;;;;;4907856;29;20029;-62
2022/06/05 07:34:47;;;;;;;2.88;1.80;;;;;;;;;;4911825;29;20032;-62
2022/06/05 07:37:16;;;;;;;7.50;1.75;;;;;;;;;;4911176;29;20028;-62
2022/06/05 07:39:43;;;;;;;3.80;1.63;;;;;;;;;;4909014;29;20035;-62
2022/06/05 07:42:09;;;;;;;7.57;2.10;;;;;;;;;;4911244;29;20024;-62
2022/06/05 07:44:39;;;;;;;2.72;1.60;;;;;;;;;;4913111;29;20033;-62
2022/06/05 07:47:06;;;;;;;2.78;1.67;;;;;;;;;;4911335;29;20033;-62
2022/06/05 07:49:32;;;;;;;4.85;1.33;;;;;;;;;;4906155;29;20091;-62
2022/06/05 07:54:43;;;;;;;4.93;1.65;;;;;;;;;;4912565;29;20067;-62
2022/06/05 07:57:12;;;;;;;2.13;1.42;;;;;;;;;;4912028;29;20396;-62
2022/06/05 07:59:46;;;;;;;6.22;1.77;;;;;;;;;;4907991;29;20039;-62
2022/06/05 08:02:15;;;;;;;4.90;1.77;;;;;;;;;;4914558;29;20040;-62
2022/06/05 08:04:42;;;;;;;7.10;1.60;;;;;;;;;;4910939;29;20690;-62
2022/06/05 08:07:10;;;;;;;2.92;1.25;;;;;;;;;;4911859;29;20514;-62
2022/06/05 08:09:36;;;;;;;4.85;1.90;;;;;;;;;;4911408;29;20046;-62
2022/06/05 08:12:03;;;;;;;4.35;1.50;;;;;;;;;;4909607;29;20607;-62
2022/06/05 08:14:35;;;;;;;6.80;1.73;;;;;;;;;;4915507;29;20392;-62
2022/06/05 08:17:01;;;;;;;2.47;1.10;;;;;;;;;;4910741;29;20067;-62
2022/06/05 08:19:27;;;;;;;4.72;2.15;;;;;;;;;;4911193;29;20062;-62
2022/06/05 08:21:53;;;;;;;6.32;1.38;;;;;;;;;;4910628;29;21421;-62
2022/06/05 08:24:20;;;;;;;4.32;1.38;;;;;;;;;;4913912;29;20024;-63
2022/06/05 08:26:46;;;;;;;2.60;1.17;;;;;;;;;;4911186;29;20028;-62
2022/06/05 08:29:12;;;;;;;4.00;1.23;;;;;;;;;;4916304;29;20028;-62
2022/06/05 08:31:39;;;;;;;6.10;1.58;;;;;;;;;;4917654;29;20042;-63
2022/06/05 08:34:05;;;;;;;3.70;1.33;;;;;;;;;;4917840;29;20493;-62
2022/06/05 08:36:32;;;;;;;2.28;1.30;;;;;;;;;;4916512;29;20077;-62
2022/06/05 08:42:02;;;;;;;6.57;1.58;;;;;;;;;;4915724;29;20046;-63
2022/06/05 08:44:28;;;;;;;3.00;1.27;;;;;;;;;;4917253;29;20028;-62
2022/06/05 08:47:01;;;;;;;3.35;1.25;;;;;;;;;;4913861;29;20020;-62
2022/06/05 08:49:34;;;;;;;6.20;1.67;;;;;;;;;;4912153;29;20411;-62
2022/06/05 08:52:00;;;;;;;4.78;1.42;;;;;;;;;;4915410;29;20416;-62
2022/06/05 08:54:37;;;;;;;3.00;1.40;;;;;;;;;;4913451;29;20028;-62
2022/06/05 08:57:19;;;;;;;6.30;1.55;;;;;;;;;;4914766;29;20064;-62
2022/06/05 08:59:48;;;;;;;4.43;1.45;;;;;;;;;;4913484;29;20425;-63
2022/06/05 09:02:23;;;;;;;5.90;1.70;;;;;;;;;;4916183;29;20042;-62
2022/06/05 09:04:56;;;;;;;3.40;1.92;;;;;;;;;;4912492;29;20063;-62
2022/06/05 09:07:40;;;;;;;4.20;1.70;;;;;;;;;;4909555;29;20046;-62
2022/06/05 09:10:20;;;;;;;7.07;1.75;;;;;;;;;;4909942;29;20040;-62
2022/06/05 09:12:51;;;;;;;4.45;1.77;;;;;;;;;;4908760;29;20036;-62
2022/06/05 09:15:20;;;;;;;6.28;1.80;;;;;;;;;;4910604;29;20036;-62
2022/06/05 09:17:51;;;;;;;4.25;1.50;;;;;;;;;;4916206;29;20131;-62
2022/06/05 09:20:18;;;;;;;2.42;1.50;;;;;;;;;;4913361;29;20052;-62
2022/06/05 09:22:57;;;;;;;4.55;1.67;;;;;;;;;;4912528;29;20071;-62
2022/06/05 09:25:26;;;;;;;3.53;1.45;;;;;;;;;;4912844;29;20055;-62
2022/06/05 09:28:07;;;;;;;1.98;1.40;;;;;;;;;;4914958;29;20032;-63
2022/06/05 09:30:46;;;;;;;5.10;1.23;;;;;;;;;;4910338;29;20050;-62
2022/06/05 09:33:14;;;;;;;7.70;2.42;;;;;;;;;;4913886;29;20024;-62
2022/06/05 09:35:55;;;;;;;3.83;1.25;;;;;;;;;;4914917;29;20496;-62
2022/06/05 09:38:26;;;;;;;2.53;1.13;;;;;;;;;;4914760;29;20616;-63
2022/06/05 09:41:07;;;;;;;5.95;1.70;;;;;;;;;;4909789;29;20476;-62
2022/06/05 09:43:52;;;;;;;4.13;1.67;;;;;;;;;;4914808;29;20059;-62
2022/06/05 09:46:37;;;;;;;2.78;1.30;;;;;;;;;;4915292;29;20346;-63
2022/06/05 09:49:18;;;;;;;6.28;1.70;;;;;;;;;;4911356;29;20032;-63
2022/06/05 09:51:45;;;;;;;4.55;1.15;;;;;;;;;;4916668;29;20123;-62
2022/06/05 09:54:20;;;;;;;6.32;1.70;;;;;;;;;;4916564;29;20047;-62
2022/06/05 09:59:41;;;;;;;3.03;1.02;;;;;;;;;;4911292;29;20047;-63
2022/06/05 10:02:08;;;;;;;5.30;1.50;;;;;;;;;;4906533;29;20075;-63
2022/06/05 10:04:36;;;;;;;3.78;1.20;;;;;;;;;;4909468;29;20054;-62
2022/06/05 10:07:06;;;;;;;3.60;1.38;;;;;;;;;;4907396;29;20562;-63
2022/06/05 10:09:33;;;;;;;5.38;1.20;;;;;;;;;;4908138;29;20126;-62
2022/06/05 10:11:59;;;;;;;2.90;1.27;;;;;;;;;;4910821;29;20036;-62
2022/06/05 10:14:44;;;;;;;2.78;1.20;;;;;;;;;;4903142;29;20039;-62
2022/06/05 10:17:28;;;;;;;4.32;1.30;;;;;;;;;;4911459;29;20509;-62
2022/06/05 10:20:00;;;;;;;5.43;1.20;;;;;;;;;;4906429;29;20055;-62
2022/06/05 10:22:26;;;;;;;4.63;1.10;;;;;;;;;;4905416;29;20424;-63
2022/06/05 10:24:52;;;;;;;5.82;1.30;;;;;;;;;;4905536;29;20075;-62
2022/06/05 10:27:19;;;;;;;4.70;1.30;;;;;;;;;;4900637;29;20096;-62
2022/06/05 10:29:47;;;;;;;4.07;1.38;;;;;;;;;;4908485;29;20032;-62
2022/06/05 10:32:33;;;;;;;4.47;1.17;;;;;;;;;;4905120;29;20037;-62
2022/06/05 10:35:03;;;;;;;5.03;1.23;;;;;;;;;;4907533;29;20040;-62
2022/06/05 10:37:50;;;;;;;3.03;1.80;;;;;;;;;;4912922;29;20052;-62
2022/06/05 10:40:19;;;;;;;3.55;1.35;;;;;;;;;;4913762;29;20036;-62
2022/06/05 10:42:52;;;;;;;6.18;1.35;;;;;;;;;;4914667;29;20020;-63
2022/06/05 10:45:18;;;;;;;1.40;0.98;;;;;;;;;;4913348;29;20024;-63
2022/06/05 10:47:49;;;;;;;2.80;1.30;;;;;;;;;;4912351;29;20063;-63
2022/06/05 10:50:20;;;;;;;7.18;1.35;;;;;;;;;;4914685;29;20024;-63
2022/06/05 10:52:52;;;;;;;6.32;1.50;;;;;;;;;;4910319;29;20501;-62
2022/06/05 10:55:18;;;;;;;4.40;1.30;;;;;;;;;;4907944;29;20054;-62
2022/06/05 10:58:10;;;;;;;3.17;1.20;;;;;;;;;;4913255;29;20480;-62
2022/06/05 11:00:56;;;;;;;5.27;1.30;;;;;;;;;;4909353;29;20416;-62
2022/06/05 11:03:41;;;;;;;4.32;1.60;;;;;;;;;;4909835;29;20159;-62
2022/06/05 11:06:07;;;;;;;3.03;1.08;;;;;;;;;;4914096;29;20558;-62
2022/06/05 11:08:43;;;;;;;2.45;1.10;;;;;;;;;;4913236;29;20408;-62
2022/06/05 11:14:04;;;;;;;4.18;1.45;;;;;;;;;;4914662;29;20518;-62
2022/06/05 11:16:38;;;;;;;3.78;1.13;;;;;;;;;;4907658;29;20408;-62
2022/06/05 11:19:16;;;;;;;2.95;1.20;;;;;;;;;;4913150;29;20403;-62
2022/06/05 11:21:43;;;;;;;2.28;1.00;;;;;;;;;;4911730;29;20083;-62
2022/06/05 11:24:22;;;;;;;3.38;1.30;;;;;;;;;;4912838;29;20913;-62
2022/06/05 11:26:53;;;;;;;2.28;1.30;;;;;;;;;;4912435;29;20484;-62
2022/06/05 11:29:25;;;;;;;2.25;0.90;;;;;;;;;;4912655;29;20036;-62
2022/06/05 11:32:14;;;;;;;2.50;0.98;;;;;;;;;;4909317;29;20039;-62
2022/06/05 11:34:59;;;;;;;2.42;0.90;;;;;;;;;;4916045;29;20052;-62
2022/06/05 11:37:43;;;;;;;5.30;1.02;;;;;;;;;;4919605;29;20504;-63
2022/06/05 11:40:09;;;;;;;4.30;0.93;;;;;;;;;;4909383;29;20377;-63
2022/06/05 11:42:45;;;;;;;5.13;0.90;;;;;;;;;;4910609;29;20072;-63
2022/06/05 11:45:30;;;;;;;2.28;1.00;;;;;;;;;;4908773;29;20195;-63
2022/06/05 11:48:04;;;;;;;5.25;1.10;;;;;;;;;;4911132;29;20416;-63
2022/06/05 11:50:30;;;;;;;3.70;1.10;;;;;;;;;;4917365;29;20469;-63
2022/06/05 11:53:05;;;;;;;2.30;1.00;;;;;;;;;;4920212;29;20036;-63
2022/06/05 11:55:41;;;;;;;6.57;1.48;;;;;;;;;;4922872;29;20040;-63
2022/06/05 11:58:09;;;;;;;7.93;1.25;;;;;;;;;;4918585;29;20044;-63
2022/06/05 12:00:42;;;;;;;3.15;1.02;;;;;;;;;;4922063;29;20086;-63
2022/06/05 12:03:15;;;;;;;3.42;1.00;;;;;;;;;;4918685;29;20123;-63
2022/06/05 12:05:49;;;;;;;4.18;1.05;;;;;;;;;;4913097;29;20107;-63
2022/06/05 12:08:19;;;;;;;2.50;0.88;;;;;;;;;;4927060;29;20031;-63
2022/06/05 12:10:51;;;;;;;4.20;1.10;;;;;;;;;;4920364;29;20083;-63
2022/06/05 12:13:30;;;;;;;9.02;1.92;;;;;;;;;;4917260;29;20412;-62
2022/06/05 12:15:59;;;;;;;7.03;1.40;;;;;;;;;;4914721;29;20040;-63
2022/06/05 12:18:36;;;;;;;6.88;1.20;;;;;;;;;;4916093;29;20058;-62
2022/06/05 12:21:09;;;;;;;3.13;1.30;;;;;;;;;;4916836;29;20076;-63
2022/06/05 12:23:38;;;;;;;2.72;1.15;;;;;;;;;;4915901;29;20040;-63
2022/06/05 12:26:30;;;;;;;6.40;1.50;;;;;;;;;;4916066;29;20032;-63
2022/06/05 12:29:02;;;;;;;2.63;1.30;;;;;;;;;;4897733;29;20096;-63
2022/06/05 12:31:31;;;;;;;5.15;1.27;;;;;;;;;;4899812;29;20048;-63
2022/06/05 12:34:02;;;;;;;4.05;1.30;;;;;;;;;;4889838;29;20045;-63
2022/06/05 12:36:35;;;;;;;5.60;1.00;;;;;;;;;;4880521;29;20087;-62
2022/06/05 12:39:22;;;;;;;5.30;1.08;;;;;;;;;;4892461;29;20536;-63
2022/06/05 12:41:51;;;;;;;3.25;1.55;;;;;;;;;;4908893;29;20043;-62
2022/06/05 12:44:28;;;;;;;7.82;1.95;;;;;;;;;;4903810;29;20029;-62
2022/06/05 12:46:58;;;;;;;5.88;1.42;;;;;;;;;;4908372;29;20076;-63
2022/06/05 12:49:32;;;;;;;5.65;1.10;;;;;;;;;;4900896;29;20448;-63
2022/06/05 12:52:21;;;;;;;11.93;1.30;;;;;;;;;;4900322;29;20119;-62
2022/06/05 12:55:07;;;;;;;4.88;1.75;;;;;;;;;;4906917;29;20036;-62
2022/06/05 12:57:39;;;;;;;4.38;1.30;;;;;;;;;;4900864;29;20496;-62
2022/06/05 13:00:23;;;;;;;8.38;1.75;;;;;;;;;;4901822;29;20048;-62
2022/06/05 13:02:50;;;;;;;12.60;1.80;;;;;;;;;;4904989;29;20043;-62
2022/06/05 13:05:22;;;;;;;12.38;2.30;;;;;;;;;;4908018;29;20143;-63
2022/06/05 13:07:51;;;;;;;10.10;1.65;;;;;;;;;;4915561;29;20113;-62
2022/06/05 13:10:20;;;;;;;7.82;2.22;;;;;;;;;;4915703;29;20056;-62
2022/06/05 13:12:50;;;;;;;4.97;1.75;;;;;;;;;;4917560;29;20044;-62
2022/06/05 13:15:16;;;;;;;9.80;1.65;;;;;;;;;;4911797;29;20043;-63
2022/06/05 13:17:55;;;;;;;10.43;1.73;;;;;;;;;;4914391;29;20024;-63
2022/06/05 13:20:24;;;;;;;6.68;1.73;;;;;;;;;;4918489;29;20504;-63
2022/06/05 13:23:04;;;;;;;7.25;1.70;;;;;;;;;;4914471;29;20039;-63
2022/06/05 13:25:44;;;;;;;2.65;1.48;;;;;;;;;;4913611;29;20535;-63
2022/06/05 13:28:35;;;;;;;5.65;1.42;;;;;;;;;;4916332;29;20039;-63
2022/06/05 13:31:15;;;;;;;7.15;1.67;;;;;;;;;;4914628;29;20530;-63
2022/06/05 13:34:04;;;;;;;3.92;1.10;;;;;;;;;;4914504;29;20048;-63
2022/06/05 13:36:35;;;;;;;6.40;1.00;;;;;;;;;;4909660;29;20044;-62
2022/06/05 13:39:05;;;;;;;4.80;1.13;;;;;;;;;;4915643;29;20044;-62
2022/06/05 13:41:43;;;;;;;8.55;1.00;;;;;;;;;;4914728;29;20040;-63
2022/06/05 13:44:15;;;;;;;3.22;0.90;;;;;;;;;;4914054;29;20483;-63
2022/06/05 13:46:50;;;;;;;2.50;1.00;;;;;;;;;;4911648;29;20045;-63
2022/06/05 13:49:25;;;;;;;3.08;0.90;;;;;;;;;;4912431;29;20518;-62
2022/06/05 13:51:54;;;;;;;3.08;0.85;;;;;;;;;;4911790;29;20036;-63
2022/06/05 13:54:31;;;;;;;2.78;1.45;;;;;;;;;;4912899;29;20048;-63
2022/06/05 13:57:20;;;;;;;3.42;1.20;;;;;;;;;;4914584;29;20043;-63
2022/06/05 13:59:51;;;;;;;2.15;1.33;;;;;;;;;;4908877;29;20055;-62
2022/06/05 14:02:29;;;;;;;4.72;0.93;;;;;;;;;;4912903;29;20432;-62
2022/06/05 14:04:58;;;;;;;2.25;0.70;;;;;;;;;;4907108;29;20043;-62
2022/06/05 14:07:25;;;;;;;5.05;1.90;;;;;;;;;;4913403;29;20493;-62
2022/06/05 14:10:04;;;;;;;2.22;0.70;;;;;;;;;;4915393;29;20452;-62
2022/06/05 14:12:31;;;;;;;3.97;0.63;;;;;;;;;;4913142;29;20493;-62
2022/06/05 14:14:58;;;;;;;2.10;0.55;;;;;;;;;;4915752;29;20046;-65
2022/06/05 14:17:24;;;;;;;0.82;0.60;;;;;;;;;;4915984;29;20032;-63
2022/06/05 14:19:58;;;;;;;2.20;1.00;;;;;;;;;;4913944;29;20028;-63
2022/06/05 14:22:27;;;;;;;0.90;0.60;;;;;;;;;;4914823;29;20032;-62
2022/06/05 14:24:55;;;;;;;1.73;0.60;;;;;;;;;;4915513;29;20033;-62
2022/06/05 14:27:31;;;;;;;2.90;0.85;;;;;;;;;;4914004;29;20540;-63
2022/06/05 14:29:59;;;;;;;4.38;0.90;;;;;;;;;;4914431;29;20461;-63
2022/06/05 14:32:35;;;;;;;1.23;0.60;;;;;;;;;;4915396;29;20056;-63
2022/06/05 14:35:11;;;;;;;6.13;0.70;;;;;;;;;;4914221;29;20399;-63
2022/06/05 14:37:50;;;;;;;1.13;0.63;;;;;;;;;;4910907;29;20025;-63
2022/06/05 14:40:18;;;;;;;5.35;1.00;;;;;;;;;;4911946;29;20099;-62
2022/06/05 14:43:02;;;;;;;6.30;0.90;;;;;;;;;;4915436;29;20031;-62
2022/06/05 14:45:34;;;;;;;3.70;0.90;;;;;;;;;;4913872;29;20024;-63
2022/06/05 14:48:19;;;;;;;1.85;0.57;;;;;;;;;;4911101;29;20039;-62
2022/06/05 14:50:47;;;;;;;4.47;0.88;;;;;;;;;;4913853;29;20159;-63
2022/06/05 14:53:13;;;;;;;2.65;0.68;;;;;;;;;;4911320;29;20071;-62
2022/06/05 14:58:50;;;;;;;3.70;1.00;;;;;;;;;;4911403;29;20536;-62
2022/06/05 15:01:19;;;;;;;7.53;1.45;;;;;;;;;;4912838;29;20254;-63
2022/06/05 15:03:51;;;;;;;5.55;1.27;;;;;;;;;;4908995;29;20029;-63
2022/06/05 15:06:20;;;;;;;3.90;1.27;;;;;;;;;;4916331;29;20492;-62
2022/06/05 15:08:56;;;;;;;3.72;0.82;;;;;;;;;;4914112;29;20043;-63
2022/06/05 15:11:28;;;;;;;3.30;0.80;;;;;;;;;;4912213;29;20033;-62
2022/06/05 15:14:00;;;;;;;5.63;1.00;;;;;;;;;;4913918;29;20038;-63
2022/06/05 15:16:29;;;;;;;4.13;1.00;;;;;;;;;;4910338;29;20531;-62
2022/06/05 15:18:56;;;;;;;7.47;2.05;;;;;;;;;;4914196;29;20574;-62
2022/06/05 15:21:31;;;;;;;4.70;1.02;;;;;;;;;;4909527;29;20453;-62
2022/06/05 15:24:01;;;;;;;3.70;1.25;;;;;;;;;;4912647;29;20043;-62
2022/06/05 15:26:38;;;;;;;8.25;1.00;;;;;;;;;;4913805;29;20478;-62
2022/06/05 15:29:18;;;;;;;2.78;0.90;;;;;;;;;;4908294;29;20032;-62
2022/06/05 15:31:44;;;;;;;4.63;1.30;;;;;;;;;;4914650;29;20067;-63
2022/06/05 15:34:19;;;;;;;6.43;1.00;;;;;;;;;;4912533;29;20036;-63
2022/06/05 15:36:51;;;;;;;3.03;0.98;;;;;;;;;;4915303;29;20028;-62
2022/06/05 15:39:27;;;;;;;5.18;1.08;;;;;;;;;;4913991;29;20090;-62
2022/06/05 15:42:19;;;;;;;4.05;1.25;;;;;;;;;;4913853;29;20040;-63
2022/06/05 15:44:52;;;;;;;2.78;0.90;;;;;;;;;;4886920;29;20060;-62
2022/06/05 15:47:41;;;;;;;5.10;1.10;;;;;;;;;;4889525;29;20116;-62
2022/06/05 15:50:13;;;;;;;6.97;1.42;;;;;;;;;;4853873;29;20046;-62
2022/06/05 15:52:43;;;;;;;1.92;0.68;;;;;;;;;;4853048;29;20124;-62
2022/06/05 15:55:15;;;;;;;3.95;1.10;;;;;;;;;;4852255;29;20124;-63
2022/06/05 16:00:36;;;;;;;5.80;1.73;;;;;;;;;;4848912;29;20049;-63
2022/06/05 16:03:04;;;;;;;4.50;1.35;;;;;;;;;;4849408;29;20041;-62
2022/06/05 16:05:40;;;;;;;11.70;1.50;;;;;;;;;;4845958;29;20050;-62
2022/06/05 16:08:09;;;;;;;10.15;1.20;;;;;;;;;;4853591;29;20061;-63
2022/06/05 16:10:45;;;;;;;5.40;0.60;;;;;;;;;;4850369;29;20497;-63
2022/06/05 16:13:11;;;;;;;14.25;1.40;;;;;;;;;;4851502;29;20520;-63
2022/06/05 16:15:46;;;;;;;4.32;0.93;;;;;;;;;;4849196;29;20070;-62
2022/06/05 16:18:15;;;;;;;4.70;1.15;;;;;;;;;;4850265;29;20128;-63
2022/06/05 16:20:41;;;;;;;4.15;0.95;;;;;;;;;;4858595;29;20508;-62
2022/06/05 16:23:26;;;;;;;2.60;1.10;;;;;;;;;;4893035;29;20052;-62
2022/06/05 16:25:52;;;;;;;2.83;0.90;;;;;;;;;;4891163;29;20031;-63
2022/06/05 16:28:27;;;;;;;9.40;1.15;;;;;;;;;;4911324;29;20041;-63
2022/06/05 16:31:13;;;;;;;4.40;1.13;;;;;;;;;;4905484;29;20381;-63
2022/06/05 16:33:45;;;;;;;5.63;0.85;;;;;;;;;;4908066;29;20032;-62
2022/06/05 16:39:30;;;;;;;5.70;0.90;;;;;;;;;;4909995;29;20051;-62
2022/06/05 16:42:05;;;;;;;6.50;0.90;;;;;;;;;;4910672;29;20512;-62
2022/06/05 16:44:53;;;;;;;6.43;1.17;;;;;;;;;;4911943;29;20032;-63
2022/06/05 16:47:31;;;;;;;8.70;1.10;;;;;;;;;;4890560;29;20426;-63
2022/06/05 16:50:06;;;;;;;4.45;1.00;;;;;;;;;;4888921;29;20155;-63
2022/06/05 16:52:39;;;;;;;4.28;1.17;;;;;;;;;;4893003;29;20044;-63
2022/06/05 16:55:23;;;;;;;7.75;2.13;;;;;;;;;;4891742;29;20088;-63
2022/06/05 16:57:51;;;;;;;3.35;1.05;;;;;;;;;;4892262;29;20052;-63
2022/06/05 17:00:21;;;;;;;5.63;1.00;;;;;;;;;;4893440;29;20131;-63
2022/06/05 17:02:52;;;;;;;3.40;0.90;;;;;;;;;;4894223;29;20036;-62
2022/06/05 17:05:30;;;;;;;7.72;1.10;;;;;;;;;;4893737;29;20064;-62
2022/06/05 17:07:59;;;;;;;3.08;0.90;;;;;;;;;;4893987;29;20336;-63
2022/06/05 17:10:25;;;;;;;6.40;1.67;;;;;;;;;;4893762;29;20024;-63
2022/06/05 17:12:55;;;;;;;2.90;1.00;;;;;;;;;;4891849;29;20044;-63
2022/06/05 17:15:44;;;;;;;4.43;1.15;;;;;;;;;;4892076;29;20092;-63
2022/06/05 17:18:16;;;;;;;6.13;0.70;;;;;;;;;;4885567;29;20448;-63
2022/06/05 17:20:51;;;;;;;5.85;1.20;;;;;;;;;;4892102;29;20044;-61
2022/06/05 17:23:18;;;;;;;9.30;1.35;;;;;;;;;;4893815;29;20489;-61
2022/06/05 17:25:49;;;;;;;5.00;0.90;;;;;;;;;;4914356;29;20016;-61
2022/06/05 17:28:44;;;;;;;6.82;1.30;;;;;;;;;;4910816;29;20035;-61
2022/06/05 17:31:10;;;;;;;2.97;0.90;;;;;;;;;;4873530;29;20040;-61
2022/06/05 17:33:59;;;;;;;7.85;1.55;;;;;;;;;;4875444;29;20064;-61
2022/06/05 17:36:28;;;;;;;7.22;1.13;;;;;;;;;;4863939;29;20052;-61
2022/06/05 17:39:04;;;;;;;6.68;1.00;;;;;;;;;;4874081;29;20037;-61
2022/06/05 17:41:48;;;;;;;8.25;1.20;;;;;;;;;;4873463;29;20108;-61
2022/06/05 17:44:31;;;;;;;4.85;0.80;;;;;;;;;;4873438;29;20029;-61
2022/06/05 17:47:09;;;;;;;4.03;1.10;;;;;;;;;;4872847;29;20781;-61
2022/06/05 17:49:44;;;;;;;5.97;1.15;;;;;;;;;;4871932;29;20041;-61
2022/06/05 17:52:12;;;;;;;2.45;0.82;;;;;;;;;;4873858;29;20386;-61
2022/06/05 17:54:49;;;;;;;2.72;0.60;;;;;;;;;;4873718;29;20063;-61
2022/06/05 17:57:21;;;;;;;4.03;1.02;;;;;;;;;;4873890;29;20593;-61
2022/06/05 17:59:58;;;;;;;4.70;0.95;;;;;;;;;;4872831;29;20484;-61
2022/06/05 18:02:26;;;;;;;2.20;0.63;;;;;;;;;;4873775;29;20060;-61
2022/06/05 18:05:00;;;;;;;10.75;1.67;;;;;;;;;;4873976;29;20037;-61
2022/06/05 18:07:31;;;;;;;5.30;1.00;;;;;;;;;;4890696;29;20099;-61
2022/06/05 18:09:58;;;;;;;2.40;0.90;;;;;;;;;;4913843;29;20039;-62
2022/06/05 18:12:26;;;;;;;3.15;0.70;;;;;;;;;;4914037;29;20115;-61
2022/06/05 18:14:53;;;;;;;2.35;0.60;;;;;;;;;;4914514;29;20036;-61
2022/06/05 18:17:37;;;;;;;3.35;0.55;;;;;;;;;;4915085;29;20028;-61
2022/06/05 18:20:08;;;;;;;2.22;0.82;;;;;;;;;;4912432;29;20036;-61
2022/06/05 18:22:45;;;;;;;1.65;0.60;;;;;;;;;;4912056;29;20488;-61
2022/06/05 18:25:30;;;;;;;1.98;0.60;;;;;;;;;;4913941;29;20032;-61
2022/06/05 18:28:11;;;;;;;2.05;0.77;;;;;;;;;;4911936;29;20028;-61
2022/06/05 18:30:44;;;;;;;4.03;0.75;;;;;;;;;;4912647;29;20032;-61
2022/06/05 18:33:35;;;;;;;5.78;1.63;;;;;;;;;;4914767;29;20040;-61
2022/06/05 18:38:57;;;;;;;3.00;0.73;;;;;;;;;;4914687;29;20373;-61
2022/06/05 18:41:25;;;;;;;1.83;1.00;;;;;;;;;;4913161;29;20040;-61
2022/06/05 18:43:51;;;;;;;2.75;1.00;;;;;;;;;;4914258;29;20020;-61
2022/06/05 18:46:26;;;;;;;2.72;0.65;;;;;;;;;;4912633;29;20040;-61
2022/06/05 18:48:54;;;;;;;4.50;1.00;;;;;;;;;;4915458;29;20475;-61
2022/06/05 18:51:23;;;;;;;1.85;0.60;;;;;;;;;;4914864;29;20078;-61
2022/06/05 18:53:51;;;;;;;3.60;0.80;;;;;;;;;;4915215;29;20043;-61
2022/06/05 18:56:35;;;;;;;5.85;0.90;;;;;;;;;;4914131;29;20032;-61
2022/06/05 18:59:03;;;;;;;3.88;0.88;;;;;;;;;;4915381;29;20041;-61
2022/06/05 19:01:35;;;;;;;6.53;0.95;;;;;;;;;;4912331;29;20055;-61
2022/06/05 19:04:11;;;;;;;6.57;1.10;;;;;;;;;;4915446;29;20035;-61
2022/06/05 19:06:45;;;;;;;10.23;1.52;;;;;;;;;;4915370;29;20040;-61
2022/06/05 19:09:18;;;;;;;5.18;1.30;;;;;;;;;;4915337;29;20052;-61
2022/06/05 19:11:48;;;;;;;4.57;1.90;;;;;;;;;;4914896;29;20028;-61
2022/06/05 19:14:14;;;;;;;3.72;1.50;;;;;;;;;;4913795;29;20392;-61
2022/06/05 19:16:43;;;;;;;3.85;1.00;;;;;;;;;;4918630;29;20024;-61
2022/06/05 19:19:16;;;;;;;4.75;1.10;;;;;;;;;;4921369;29;20074;-61
2022/06/05 19:21:48;;;;;;;4.15;1.17;;;;;;;;;;4913433;29;20083;-61
2022/06/05 19:24:32;;;;;;;7.43;1.08;;;;;;;;;;4917939;29;20028;-61
2022/06/05 19:26:59;;;;;;;8.13;1.08;;;;;;;;;;4920689;29;20024;-61
2022/06/05 19:29:30;;;;;;;4.57;0.98;;;;;;;;;;4921768;29;20035;-61
2022/06/05 19:32:00;;;;;;;6.65;1.02;;;;;;;;;;4920851;29;20106;-61
2022/06/05 19:34:27;;;;;;;6.97;1.13;;;;;;;;;;4923638;29;20039;-61
2022/06/05 19:39:54;;;;;;;10.45;1.23;;;;;;;;;;4921298;29;20132;-61
2022/06/05 19:42:21;;;;;;;2.67;0.85;;;;;;;;;;4921674;29;20036;-61
2022/06/05 19:44:47;;;;;;;2.35;0.90;;;;;;;;;;4922152;29;20012;-61
2022/06/05 19:47:25;;;;;;;5.45;1.52;;;;;;;;;;4921800;29;20464;-61
2022/06/05 19:49:53;;;;;;;1.13;0.77;;;;;;;;;;4923299;29;20020;-61
2022/06/05 19:52:22;;;;;;;2.47;0.68;;;;;;;;;;4925088;29;20419;-61
2022/06/05 19:54:49;;;;;;;1.75;0.80;;;;;;;;;;4922763;29;20042;-61
2022/06/05 19:57:17;;;;;;;2.67;0.77;;;;;;;;;;4918313;29;20496;-61
2022/06/05 20:00:02;;;;;;;1.33;0.40;;;;;;;;;;4923710;29;20087;-61
2022/06/05 20:02:36;;;;;;;4.45;0.60;;;;;;;;;;4916034;29;20044;-61
2022/06/05 20:05:03;;;;;;;1.08;0.55;;;;;;;;;;4922593;29;20032;-61
2022/06/05 20:07:34;;;;;;;7.97;0.85;;;;;;;;;;4919873;29;20094;-61
2022/06/05 20:10:16;;;;;;;0.85;0.50;;;;;;;;;;4918927;29;20540;-61
2022/06/05 20:12:45;;;;;;;5.35;1.30;;;;;;;;;;4919007;29;20023;-61
2022/06/05 20:15:16;;;;;;;3.22;0.95;;;;;;;;;;4917107;29;20066;-60
2022/06/05 20:17:49;;;;;;;3.15;0.68;;;;;;;;;;4915943;29;20036;-61
2022/06/05 20:20:21;;;;;;;6.35;1.73;;;;;;;;;;4917889;29;20044;-61
2022/06/05 20:22:47;;;;;;;6.18;0.80;;;;;;;;;;4920299;29;20042;-61
2022/06/05 20:25:23;;;;;;;2.55;0.93;;;;;;;;;;4918506;29;20040;-61
2022/06/05 20:28:08;;;;;;;3.88;0.70;;;;;;;;;;4925788;29;20039;-61
2022/06/05 20:30:53;;;;;;;4.72;0.73;;;;;;;;;;4923160;29;20039;-61
2022/06/05 20:33:23;;;;;;;4.85;0.90;;;;;;;;;;4924827;29;20499;-61
2022/06/05 20:36:05;;;;;;;3.80;1.10;;;;;;;;;;4925041;29;20040;-61
2022/06/05 20:38:51;;;;;;;3.20;0.70;;;;;;;;;;4924847;29;20032;-60